sensor_id;sensor_type;location;lat;lon;timestamp;pressure;altitude;pressure_sealevel;temperature;humidity
45403;BME280;47427;51.976;5.326;2022-09-02T00:02:25;101681.84;;;16.72;48.74
45403;BME280;47427;51.976;5.326;2022-09-02T00:05:48;101671.22;;;16.68;48.75
45403;BME280;47427;51.976;5.326;2022-09-02T00:09:14;101675.66;;;16.73;48.80
45403;BME280;47427;51.976;5.326;2022-09-02T00:12:37;101673.09;;;16.77;48.85
45403;BME280;47427;51.976;5.326;2022-09-02T00:16:00;101675.69;;;16.76;49.11
45403;BME280;47427;51.976;5.326;2022-09-02T00:19:45;101670.28;;;16.66;48.93
45403;BME280;47427;51.976;5.326;2022-09-02T00:23:08;101671.13;;;16.65;49.52
45403;BME280;47427;51.976;5.326;2022-09-02T00:26:31;101661.38;;;16.63;49.54
45403;BME280;47427;51.976;5.326;2022-09-02T00:29:54;101669.44;;;16.71;49.55
45403;BME280;47427;51.976;5.326;2022-09-02T00:33:17;101669.38;;;16.66;49.63
45403;BME280;47427;51.976;5.326;2022-09-02T00:36:39;101666.66;;;16.60;49.49
45403;BME280;47427;51.976;5.326;2022-09-02T00:40:03;101662.22;;;16.60;49.42
45403;BME280;47427;51.976;5.326;2022-09-02T00:43:51;101667.53;;;16.59;49.65
45403;BME280;47427;51.976;5.326;2022-09-02T00:47:15;101655.13;;;16.56;49.45
45403;BME280;47427;51.976;5.326;2022-09-02T00:50:37;101653.25;;;16.51;49.78
45403;BME280;47427;51.976;5.326;2022-09-02T00:54:00;101650.56;;;16.46;49.74
45403;BME280;47427;51.976;5.326;2022-09-02T00:57:29;101650.56;;;16.46;50.16
45403;BME280;47427;51.976;5.326;2022-09-02T01:00:56;101643.25;;;16.28;51.06
45403;BME280;47427;51.976;5.326;2022-09-02T01:04:39;101647.50;;;16.18;50.53
45403;BME280;47427;51.976;5.326;2022-09-02T01:08:03;101651.88;;;16.18;51.17
45403;BME280;47427;51.976;5.326;2022-09-02T01:11:49;101652.63;;;16.09;51.43
45403;BME280;47427;51.976;5.326;2022-09-02T01:15:15;101644.56;;;16.01;51.35
45403;BME280;47427;51.976;5.326;2022-09-02T01:18:38;101639.19;;;15.95;51.65
45403;BME280;47427;51.976;5.326;2022-09-02T01:22:01;101636.38;;;15.86;52.25
45403;BME280;47427;51.976;5.326;2022-09-02T01:25:32;101650.56;;;15.91;51.99
45403;BME280;47427;51.976;5.326;2022-09-02T01:28:55;101643.41;;;15.86;52.72
45403;BME280;47427;51.976;5.326;2022-09-02T01:32:19;101637.09;;;15.77;52.28
45403;BME280;47427;51.976;5.326;2022-09-02T01:35:43;101642.41;;;15.79;52.71
45403;BME280;47427;51.976;5.326;2022-09-02T01:39:24;101645.03;;;15.77;53.03
45403;BME280;47427;51.976;5.326;2022-09-02T01:42:47;101642.31;;;15.74;52.56
45403;BME280;47427;51.976;5.326;2022-09-02T01:46:14;101640.44;;;15.69;52.92
45403;BME280;47427;51.976;5.326;2022-09-02T01:49:37;101628.84;;;15.62;53.18
45403;BME280;47427;51.976;5.326;2022-09-02T01:53:02;101627.03;;;15.58;53.71
45403;BME280;47427;51.976;5.326;2022-09-02T01:56:26;101620.63;;;15.45;53.38
45403;BME280;47427;51.976;5.326;2022-09-02T02:00:11;101619.53;;;15.35;54.25
45403;BME280;47427;51.976;5.326;2022-09-02T02:03:36;101618.50;;;15.27;54.50
45403;BME280;47427;51.976;5.326;2022-09-02T02:06:59;101628.13;;;15.22;54.87
45403;BME280;47427;51.976;5.326;2022-09-02T02:10:22;101621.75;;;15.12;55.29
45403;BME280;47427;51.976;5.326;2022-09-02T02:13:46;101629.63;;;15.09;55.26
45403;BME280;47427;51.976;5.326;2022-09-02T02:17:09;101610.88;;;14.97;54.78
45403;BME280;47427;51.976;5.326;2022-09-02T02:20:35;101616.16;;;14.97;54.84
45403;BME280;47427;51.976;5.326;2022-09-02T02:23:58;101624.84;;;14.91;55.35
45403;BME280;47427;51.976;5.326;2022-09-02T02:27:24;101621.22;;;14.86;55.74
45403;BME280;47427;51.976;5.326;2022-09-02T02:30:47;101625.56;;;14.84;55.96
45403;BME280;47427;51.976;5.326;2022-09-02T02:34:11;101610.41;;;14.74;56.09
45403;BME280;47427;51.976;5.326;2022-09-02T02:37:35;101624.53;;;14.78;55.84
45403;BME280;47427;51.976;5.326;2022-09-02T02:40:58;101604.97;;;14.68;56.29
45403;BME280;47427;51.976;5.326;2022-09-02T02:44:20;101610.22;;;14.66;56.39
45403;BME280;47427;51.976;5.326;2022-09-02T02:47:44;101610.13;;;14.63;56.15
45403;BME280;47427;51.976;5.326;2022-09-02T02:51:09;101616.25;;;14.61;56.49
45403;BME280;47427;51.976;5.326;2022-09-02T02:54:40;101596.69;;;14.52;56.62
45403;BME280;47427;51.976;5.326;2022-09-02T02:58:04;101608.16;;;14.53;56.77
45403;BME280;47427;51.976;5.326;2022-09-02T03:01:30;101604.59;;;14.51;57.23
45403;BME280;47427;51.976;5.326;2022-09-02T03:04:53;101601.78;;;14.45;56.68
45403;BME280;47427;51.976;5.326;2022-09-02T03:08:20;101591.13;;;14.40;57.03
45403;BME280;47427;51.976;5.326;2022-09-02T03:11:46;101599.09;;;14.42;57.02
45403;BME280;47427;51.976;5.326;2022-09-02T03:15:10;101605.25;;;14.42;56.97
45403;BME280;47427;51.976;5.326;2022-09-02T03:18:34;101585.94;;;14.43;56.63
45403;BME280;47427;51.976;5.326;2022-09-02T03:21:57;101594.84;;;14.48;57.06
45403;BME280;47427;51.976;5.326;2022-09-02T03:25:21;101596.50;;;14.43;56.69
45403;BME280;47427;51.976;5.326;2022-09-02T03:28:47;101579.66;;;14.38;56.93
45403;BME280;47427;51.976;5.326;2022-09-02T03:32:10;101600.00;;;14.44;56.77
45403;BME280;47427;51.976;5.326;2022-09-02T03:35:40;101593.84;;;14.43;56.89
45403;BME280;47427;51.976;5.326;2022-09-02T03:39:05;101589.41;;;14.41;56.62
45403;BME280;47427;51.976;5.326;2022-09-02T03:42:28;101595.78;;;14.52;57.07
45403;BME280;47427;51.976;5.326;2022-09-02T03:45:50;101594.13;;;14.54;56.69
45403;BME280;47427;51.976;5.326;2022-09-02T03:49:13;101583.47;;;14.51;56.96
45403;BME280;47427;51.976;5.326;2022-09-02T03:52:36;101588.84;;;14.56;56.58
45403;BME280;47427;51.976;5.326;2022-09-02T03:56:18;101575.53;;;14.52;56.55
45403;BME280;47427;51.976;5.326;2022-09-02T03:59:41;101571.09;;;14.50;56.72
45403;BME280;47427;51.976;5.326;2022-09-02T04:03:04;101579.16;;;14.55;56.69
45403;BME280;47427;51.976;5.326;2022-09-02T04:06:27;101574.81;;;14.58;56.49
45403;BME280;47427;51.976;5.326;2022-09-02T04:09:51;101579.22;;;14.58;56.56
45403;BME280;47427;51.976;5.326;2022-09-02T04:13:14;101574.75;;;14.55;56.92
45403;BME280;47427;51.976;5.326;2022-09-02T04:16:37;101557.88;;;14.48;57.29
45403;BME280;47427;51.976;5.326;2022-09-02T04:20:04;101561.41;;;14.49;56.91
45403;BME280;47427;51.976;5.326;2022-09-02T04:23:29;101535.50;;;14.31;57.32
45403;BME280;47427;51.976;5.326;2022-09-02T04:26:52;101563.06;;;14.45;56.88
45403;BME280;47427;51.976;5.326;2022-09-02T04:30:14;101569.16;;;14.43;57.06
45403;BME280;47427;51.976;5.326;2022-09-02T04:33:40;101562.94;;;14.39;57.18
45403;BME280;47427;51.976;5.326;2022-09-02T04:37:06;101567.28;;;14.36;57.97
45403;BME280;47427;51.976;5.326;2022-09-02T04:40:29;101562.81;;;14.33;57.81
45403;BME280;47427;51.976;5.326;2022-09-02T04:43:56;101566.34;;;14.35;58.08
45403;BME280;47427;51.976;5.326;2022-09-02T04:47:23;101555.81;;;14.35;57.78
45403;BME280;47427;51.976;5.326;2022-09-02T04:51:16;101562.00;;;14.37;57.81
45403;BME280;47427;51.976;5.326;2022-09-02T04:54:40;101565.63;;;14.41;57.52
45403;BME280;47427;51.976;5.326;2022-09-02T04:58:03;101558.59;;;14.43;57.82
45403;BME280;47427;51.976;5.326;2022-09-02T05:01:31;101563.06;;;14.45;57.56
45403;BME280;47427;51.976;5.326;2022-09-02T05:04:59;101545.44;;;14.44;57.71
45403;BME280;47427;51.976;5.326;2022-09-02T05:08:25;101560.63;;;14.53;57.60
45403;BME280;47427;51.976;5.326;2022-09-02T05:12:06;101558.97;;;14.57;57.80
45403;BME280;47427;51.976;5.326;2022-09-02T05:15:39;101549.38;;;14.62;57.40
45403;BME280;47427;51.976;5.326;2022-09-02T05:19:04;101550.56;;;14.78;57.63
45403;BME280;47427;51.976;5.326;2022-09-02T05:22:36;101559.81;;;15.00;57.11
45403;BME280;47427;51.976;5.326;2022-09-02T05:26:05;101552.25;;;15.18;56.61
45403;BME280;47427;51.976;5.326;2022-09-02T05:29:28;101561.38;;;15.35;55.93
45403;BME280;47427;51.976;5.326;2022-09-02T05:32:52;101560.06;;;15.60;56.17
45403;BME280;47427;51.976;5.326;2022-09-02T05:36:19;101558.53;;;15.73;55.63
45403;BME280;47427;51.976;5.326;2022-09-02T05:39:44;101553.44;;;15.87;55.34
45403;BME280;47427;51.976;5.326;2022-09-02T05:43:07;101550.91;;;15.95;55.21
45403;BME280;47427;51.976;5.326;2022-09-02T05:46:32;101547.53;;;16.05;55.55
45403;BME280;47427;51.976;5.326;2022-09-02T05:49:55;101542.34;;;16.11;54.76
45403;BME280;47427;51.976;5.326;2022-09-02T05:53:19;101559.31;;;16.24;54.95
45403;BME280;47427;51.976;5.326;2022-09-02T05:56:45;101548.75;;;16.25;55.34
45403;BME280;47427;51.976;5.326;2022-09-02T06:00:10;101547.09;;;16.34;55.12
45403;BME280;47427;51.976;5.326;2022-09-02T06:03:36;101554.25;;;16.42;55.37
45403;BME280;47427;51.976;5.326;2022-09-02T06:07:01;101552.56;;;16.47;54.63
45403;BME280;47427;51.976;5.326;2022-09-02T06:10:24;101553.44;;;16.48;54.29
45403;BME280;47427;51.976;5.326;2022-09-02T06:13:48;101549.84;;;16.43;54.32
45403;BME280;47427;51.976;5.326;2022-09-02T06:17:11;101536.75;;;16.55;54.25
45403;BME280;47427;51.976;5.326;2022-09-02T06:20:44;101559.09;;;16.76;53.84
45403;BME280;47427;51.976;5.326;2022-09-02T06:24:10;101552.19;;;16.85;53.69
45403;BME280;47427;51.976;5.326;2022-09-02T06:27:33;101545.16;;;16.90;53.86
45403;BME280;47427;51.976;5.326;2022-09-02T06:30:57;101542.56;;;16.95;53.88
45403;BME280;47427;51.976;5.326;2022-09-02T06:34:22;101531.00;;;16.88;53.80
45403;BME280;47427;51.976;5.326;2022-09-02T06:37:50;101543.56;;;17.05;53.30
45403;BME280;47427;51.976;5.326;2022-09-02T06:41:17;101557.81;;;17.15;52.73
45403;BME280;47427;51.976;5.326;2022-09-02T06:44:41;101550.88;;;17.27;52.43
45403;BME280;47427;51.976;5.326;2022-09-02T06:48:22;101546.56;;;17.40;52.28
45403;BME280;47427;51.976;5.326;2022-09-02T06:51:48;101541.38;;;17.54;51.98
45403;BME280;47427;51.976;5.326;2022-09-02T06:55:13;101539.00;;;17.83;51.60
45403;BME280;47427;51.976;5.326;2022-09-02T06:58:36;101535.91;;;18.66;50.87
45403;BME280;47427;51.976;5.326;2022-09-02T07:01:59;101537.91;;;19.51;47.08
45403;BME280;47427;51.976;5.326;2022-09-02T07:05:22;101544.16;;;19.79;46.58
45403;BME280;47427;51.976;5.326;2022-09-02T07:08:46;101529.00;;;19.37;47.20
45403;BME280;47427;51.976;5.326;2022-09-02T07:12:09;101537.03;;;19.40;47.30
45403;BME280;47427;51.976;5.326;2022-09-02T07:15:40;101528.00;;;20.58;44.92
45403;BME280;47427;51.976;5.326;2022-09-02T07:19:04;101526.63;;;21.43;42.95
45403;BME280;47427;51.976;5.326;2022-09-02T07:22:27;101528.06;;;21.82;42.07
45403;BME280;47427;51.976;5.326;2022-09-02T07:25:50;101524.72;;;21.60;42.02
45403;BME280;47427;51.976;5.326;2022-09-02T07:29:14;101526.66;;;21.35;42.74
45403;BME280;47427;51.976;5.326;2022-09-02T07:32:38;101531.19;;;21.21;43.91
45403;BME280;47427;51.976;5.326;2022-09-02T07:36:04;101522.31;;;21.19;42.88
45403;BME280;47427;51.976;5.326;2022-09-02T07:39:29;101513.69;;;21.94;41.42
45403;BME280;47427;51.976;5.326;2022-09-02T07:43:10;101513.44;;;22.20;41.02
45403;BME280;47427;51.976;5.326;2022-09-02T07:46:37;101531.28;;;22.21;41.54
45403;BME280;47427;51.976;5.326;2022-09-02T07:50:00;101518.47;;;22.48;40.70
45403;BME280;47427;51.976;5.326;2022-09-02T07:53:27;101521.66;;;23.92;38.24
45403;BME280;47427;51.976;5.326;2022-09-02T07:57:09;101514.25;;;22.98;38.47
45403;BME280;47427;51.976;5.326;2022-09-02T08:00:33;101528.03;;;23.32;38.04
45403;BME280;47427;51.976;5.326;2022-09-02T08:04:03;101512.50;;;24.04;36.88
45403;BME280;47427;51.976;5.326;2022-09-02T08:07:29;101527.34;;;24.22;36.04
45403;BME280;47427;51.976;5.326;2022-09-02T08:10:53;101514.81;;;24.69;36.79
45403;BME280;47427;51.976;5.326;2022-09-02T08:14:22;101518.69;;;25.34;35.08
45403;BME280;47427;51.976;5.326;2022-09-02T08:17:47;101515.63;;;25.49;34.54
45403;BME280;47427;51.976;5.326;2022-09-02T08:21:09;101509.81;;;26.02;34.54
45403;BME280;47427;51.976;5.326;2022-09-02T08:24:32;101515.84;;;27.02;32.67
45403;BME280;47427;51.976;5.326;2022-09-02T08:27:55;101506.00;;;27.56;31.53
45403;BME280;47427;51.976;5.326;2022-09-02T08:31:17;101511.59;;;27.76;30.83
45403;BME280;47427;51.976;5.326;2022-09-02T08:34:40;101505.53;;;28.46;30.29
45403;BME280;47427;51.976;5.326;2022-09-02T08:38:02;101508.56;;;28.61;29.60
45403;BME280;47427;51.976;5.326;2022-09-02T08:45:39;101498.91;;;28.99;29.60
45403;BME280;47427;51.976;5.326;2022-09-02T08:49:07;101499.97;;;29.83;29.76
45403;BME280;47427;51.976;5.326;2022-09-02T08:53:15;101499.59;;;29.28;29.05
45403;BME280;47427;51.976;5.326;2022-09-02T08:56:39;101491.66;;;28.30;30.45
45403;BME280;47427;51.976;5.326;2022-09-02T09:00:04;101496.53;;;28.69;29.49
45403;BME280;47427;51.976;5.326;2022-09-02T09:04:11;101491.53;;;28.82;29.83
45403;BME280;47427;51.976;5.326;2022-09-02T09:08:51;101483.81;;;29.81;29.00
45403;BME280;47427;51.976;5.326;2022-09-02T09:16:25;101489.91;;;30.47;27.67
45403;BME280;47427;51.976;5.326;2022-09-02T09:19:51;101487.38;;;28.95;29.47
45403;BME280;47427;51.976;5.326;2022-09-02T09:23:31;101483.22;;;28.40;29.97
45403;BME280;47427;51.976;5.326;2022-09-02T09:26:55;101479.63;;;28.64;29.86
45403;BME280;47427;51.976;5.326;2022-09-02T09:30:18;101467.81;;;29.12;29.96
45403;BME280;47427;51.976;5.326;2022-09-02T09:34:04;101466.31;;;28.60;31.07
45403;BME280;47427;51.976;5.326;2022-09-02T09:37:31;101467.88;;;28.65;31.37
45403;BME280;47427;51.976;5.326;2022-09-02T09:41:18;101465.00;;;28.70;31.68
45403;BME280;47427;51.976;5.326;2022-09-02T09:44:46;101466.03;;;29.76;30.39
45403;BME280;47427;51.976;5.326;2022-09-02T09:48:21;101457.91;;;29.33;30.40
45403;BME280;47427;51.976;5.326;2022-09-02T09:51:54;101470.34;;;28.48;32.46
45403;BME280;47427;51.976;5.326;2022-09-02T09:55:20;101474.56;;;28.55;34.45
45403;BME280;47427;51.976;5.326;2022-09-02T09:58:45;101470.44;;;28.21;34.19
45403;BME280;47427;51.976;5.326;2022-09-02T10:02:24;101444.72;;;27.36;33.32
45403;BME280;47427;51.976;5.326;2022-09-02T10:05:46;101456.25;;;27.39;33.13
45403;BME280;47427;51.976;5.326;2022-09-02T10:12:36;101461.09;;;28.77;31.46
45403;BME280;47427;51.976;5.326;2022-09-02T10:16:26;101452.19;;;30.61;28.78
45403;BME280;47427;51.976;5.326;2022-09-02T10:31:53;101446.69;;;34.92;23.25
45403;BME280;47427;51.976;5.326;2022-09-02T10:47:30;101423.28;;;37.88;19.35
45403;BME280;47427;51.976;5.326;2022-09-02T10:51:23;101407.88;;;38.54;18.69
45403;BME280;47427;51.976;5.326;2022-09-02T10:55:16;101409.16;;;39.68;18.37
45403;BME280;47427;51.976;5.326;2022-09-02T10:58:59;101403.09;;;41.25;17.66
45403;BME280;47427;51.976;5.326;2022-09-02T11:02:37;101417.50;;;41.85;15.25
45403;BME280;47427;51.976;5.326;2022-09-02T11:06:11;101412.72;;;41.77;15.48
45403;BME280;47427;51.976;5.326;2022-09-02T11:09:53;101415.84;;;42.12;14.97
45403;BME280;47427;51.976;5.326;2022-09-02T11:17:46;101405.75;;;43.29;14.66
45403;BME280;47427;51.976;5.326;2022-09-02T11:25:19;101397.41;;;45.09;13.46
45403;BME280;47427;51.976;5.326;2022-09-02T11:29:15;101384.41;;;45.42;14.17
45403;BME280;47427;51.976;5.326;2022-09-02T11:36:38;101379.16;;;45.80;13.09
45403;BME280;47427;51.976;5.326;2022-09-02T11:40:08;101366.59;;;46.72;12.80
45403;BME280;47427;51.976;5.326;2022-09-02T11:43:45;101370.16;;;47.41;13.02
45403;BME280;47427;51.976;5.326;2022-09-02T11:54:38;101352.44;;;45.88;10.35
45403;BME280;47427;51.976;5.326;2022-09-02T11:58:02;101356.13;;;47.20;10.81
45403;BME280;47427;51.976;5.326;2022-09-02T12:01:38;101328.50;;;46.57;11.00
45403;BME280;47427;51.976;5.326;2022-09-02T12:09:10;101327.44;;;37.77;17.53
45403;BME280;47427;51.976;5.326;2022-09-02T12:19:44;101319.59;;;40.27;15.51
45403;BME280;47427;51.976;5.326;2022-09-02T12:30:12;101322.53;;;36.64;17.43
45403;BME280;47427;51.976;5.326;2022-09-02T12:33:47;101312.59;;;37.45;17.54
45403;BME280;47427;51.976;5.326;2022-09-02T12:37:48;101312.59;;;41.87;14.95
45403;BME280;47427;51.976;5.326;2022-09-02T12:41:25;101319.03;;;43.48;12.96
45403;BME280;47427;51.976;5.326;2022-09-02T12:45:10;101311.94;;;44.14;12.65
45403;BME280;47427;51.976;5.326;2022-09-02T12:48:40;101306.16;;;44.75;11.76
45403;BME280;47427;51.976;5.326;2022-09-02T12:52:08;101295.25;;;45.23;11.52
45403;BME280;47427;51.976;5.326;2022-09-02T12:55:31;101314.13;;;46.54;11.35
45403;BME280;47427;51.976;5.326;2022-09-02T12:58:56;101305.66;;;46.24;10.84
45403;BME280;47427;51.976;5.326;2022-09-02T13:03:15;101293.78;;;46.99;10.90
45403;BME280;47427;51.976;5.326;2022-09-02T13:14:57;101292.13;;;46.67;10.89
45403;BME280;47427;51.976;5.326;2022-09-02T13:22:48;101273.88;;;44.08;12.40
45403;BME280;47427;51.976;5.326;2022-09-02T13:26:32;101279.25;;;44.18;11.87
45403;BME280;47427;51.976;5.326;2022-09-02T13:33:26;101281.16;;;44.09;11.76
45403;BME280;47427;51.976;5.326;2022-09-02T13:36:49;101279.22;;;44.02;12.71
45403;BME280;47427;51.976;5.326;2022-09-02T13:40:24;101272.59;;;44.62;11.65
45403;BME280;47427;51.976;5.326;2022-09-02T13:43:45;101276.16;;;43.44;11.79
45403;BME280;47427;51.976;5.326;2022-09-02T13:47:16;101270.16;;;44.50;12.43
45403;BME280;47427;51.976;5.326;2022-09-02T13:50:51;101264.75;;;44.32;11.41
45403;BME280;47427;51.976;5.326;2022-09-02T13:54:14;101265.97;;;44.30;11.47
45403;BME280;47427;51.976;5.326;2022-09-02T13:57:37;101259.59;;;43.44;12.28
45403;BME280;47427;51.976;5.326;2022-09-02T14:01:28;101247.34;;;44.48;11.58
45403;BME280;47427;51.976;5.326;2022-09-02T14:04:57;101250.44;;;44.94;10.46
45403;BME280;47427;51.976;5.326;2022-09-02T14:08:23;101239.91;;;44.90;11.55
45403;BME280;47427;51.976;5.326;2022-09-02T14:11:48;101236.16;;;45.38;10.87
45403;BME280;47427;51.976;5.326;2022-09-02T14:15:14;101226.38;;;45.90;11.10
45403;BME280;47427;51.976;5.326;2022-09-02T14:18:37;101237.78;;;45.08;10.45
45403;BME280;47427;51.976;5.326;2022-09-02T14:22:00;101231.06;;;44.86;10.54
45403;BME280;47427;51.976;5.326;2022-09-02T14:25:24;101213.88;;;45.07;10.49
45403;BME280;47427;51.976;5.326;2022-09-02T14:28:50;101209.09;;;45.57;10.36
45403;BME280;47427;51.976;5.326;2022-09-02T14:32:25;101210.78;;;44.04;11.30
45403;BME280;47427;51.976;5.326;2022-09-02T14:39:52;101203.75;;;43.75;11.02
45403;BME280;47427;51.976;5.326;2022-09-02T14:43:15;101190.44;;;43.62;12.06
45403;BME280;47427;51.976;5.326;2022-09-02T14:50:10;101193.81;;;43.48;11.50
45403;BME280;47427;51.976;5.326;2022-09-02T14:53:35;101187.97;;;44.02;11.12
45403;BME280;47427;51.976;5.326;2022-09-02T14:56:59;101188.44;;;43.38;12.13
45403;BME280;47427;51.976;5.326;2022-09-02T15:00:22;101183.72;;;42.52;12.33
45403;BME280;47427;51.976;5.326;2022-09-02T15:03:45;101187.38;;;43.05;12.19
45403;BME280;47427;51.976;5.326;2022-09-02T15:07:10;101179.53;;;42.92;12.37
45403;BME280;47427;51.976;5.326;2022-09-02T15:10:32;101167.03;;;42.80;12.36
45403;BME280;47427;51.976;5.326;2022-09-02T15:13:54;101174.94;;;39.76;13.87
45403;BME280;47427;51.976;5.326;2022-09-02T15:17:18;101166.16;;;39.92;14.86
45403;BME280;47427;51.976;5.326;2022-09-02T15:20:41;101157.63;;;40.14;14.31
45403;BME280;47427;51.976;5.326;2022-09-02T15:24:03;101163.25;;;40.61;13.85
45403;BME280;47427;51.976;5.326;2022-09-02T15:27:26;101168.66;;;40.24;14.06
45403;BME280;47427;51.976;5.326;2022-09-02T15:30:57;101166.91;;;39.94;13.88
45403;BME280;47427;51.976;5.326;2022-09-02T15:34:21;101165.09;;;38.92;14.85
45403;BME280;47427;51.976;5.326;2022-09-02T15:37:43;101155.84;;;38.51;15.30
45403;BME280;47427;51.976;5.326;2022-09-02T15:41:24;101155.75;;;38.84;14.69
45403;BME280;47427;51.976;5.326;2022-09-02T15:44:48;101144.53;;;38.24;14.82
45403;BME280;47427;51.976;5.326;2022-09-02T15:48:09;101152.41;;;38.59;14.38
45403;BME280;47427;51.976;5.326;2022-09-02T15:51:33;101144.00;;;37.98;14.92
45403;BME280;47427;51.976;5.326;2022-09-02T15:54:56;101154.94;;;38.09;14.78
45403;BME280;47427;51.976;5.326;2022-09-02T15:58:19;101142.03;;;37.77;15.09
45403;BME280;47427;51.976;5.326;2022-09-02T16:01:44;101132.38;;;37.62;15.70
45403;BME280;47427;51.976;5.326;2022-09-02T16:05:07;101126.53;;;37.66;15.54
45403;BME280;47427;51.976;5.326;2022-09-02T16:08:34;101110.25;;;37.54;15.75
45403;BME280;47427;51.976;5.326;2022-09-02T16:11:57;101121.47;;;37.28;16.35
45403;BME280;47427;51.976;5.326;2022-09-02T16:15:18;101124.06;;;36.62;16.66
45403;BME280;47427;51.976;5.326;2022-09-02T16:18:42;101115.56;;;36.18;17.17
45403;BME280;47427;51.976;5.326;2022-09-02T16:22:05;101121.41;;;35.66;17.10
45403;BME280;47427;51.976;5.326;2022-09-02T16:25:27;101112.25;;;34.79;17.74
45403;BME280;47427;51.976;5.326;2022-09-02T16:28:53;101116.28;;;34.86;18.63
45403;BME280;47427;51.976;5.326;2022-09-02T16:32:17;101107.63;;;34.41;18.51
45403;BME280;47427;51.976;5.326;2022-09-02T16:35:38;101110.13;;;33.64;18.81
45403;BME280;47427;51.976;5.326;2022-09-02T16:39:01;101100.75;;;33.27;19.56
45403;BME280;47427;51.976;5.326;2022-09-02T16:42:43;101098.38;;;33.08;20.63
45403;BME280;47427;51.976;5.326;2022-09-02T16:46:04;101104.13;;;32.44;20.51
45403;BME280;47427;51.976;5.326;2022-09-02T16:49:26;101103.34;;;32.12;21.47
45403;BME280;47427;51.976;5.326;2022-09-02T16:52:47;101091.00;;;31.60;21.74
45403;BME280;47427;51.976;5.326;2022-09-02T16:56:14;101092.78;;;30.79;22.80
45403;BME280;47427;51.976;5.326;2022-09-02T16:59:39;101101.06;;;30.42;23.35
45403;BME280;47427;51.976;5.326;2022-09-02T17:03:01;101096.56;;;29.89;23.56
45403;BME280;47427;51.976;5.326;2022-09-02T17:06:22;101088.91;;;29.25;25.43
45403;BME280;47427;51.976;5.326;2022-09-02T17:09:45;101097.56;;;28.54;25.77
45403;BME280;47427;51.976;5.326;2022-09-02T17:13:07;101091.41;;;27.87;26.78
45403;BME280;47427;51.976;5.326;2022-09-02T17:16:50;101083.25;;;27.45;27.46
45403;BME280;47427;51.976;5.326;2022-09-02T17:20:11;101092.88;;;27.29;27.41
45403;BME280;47427;51.976;5.326;2022-09-02T17:23:33;101090.06;;;26.85;27.27
45403;BME280;47427;51.976;5.326;2022-09-02T17:26:56;101085.53;;;26.62;28.22
45403;BME280;47427;51.976;5.326;2022-09-02T17:30:17;101094.34;;;26.40;29.30
45403;BME280;47427;51.976;5.326;2022-09-02T17:33:40;101077.34;;;26.13;30.03
45403;BME280;47427;51.976;5.326;2022-09-02T17:37:03;101087.13;;;25.90;29.79
45403;BME280;47427;51.976;5.326;2022-09-02T17:40:25;101082.41;;;25.69;30.08
45403;BME280;47427;51.976;5.326;2022-09-02T17:44:34;101090.97;;;25.54;30.36
45403;BME280;47427;51.976;5.326;2022-09-02T17:47:57;101087.91;;;25.38;31.59
45403;BME280;47427;51.976;5.326;2022-09-02T17:51:20;101093.66;;;25.25;30.69
45403;BME280;47427;51.976;5.326;2022-09-02T17:54:44;101102.28;;;25.05;31.14
45403;BME280;47427;51.976;5.326;2022-09-02T17:58:12;101104.41;;;24.94;31.17
45403;BME280;47427;51.976;5.326;2022-09-02T18:02:18;101100.72;;;24.67;31.38
45403;BME280;47427;51.976;5.326;2022-09-02T18:06:21;101094.25;;;24.40;32.04
45403;BME280;47427;51.976;5.326;2022-09-02T18:09:48;101099.72;;;24.37;32.28
45403;BME280;47427;51.976;5.326;2022-09-02T18:13:16;101090.44;;;24.16;32.88
45403;BME280;47427;51.976;5.326;2022-09-02T18:17:29;101095.50;;;23.92;33.10
45403;BME280;47427;51.976;5.326;2022-09-02T18:21:07;101089.56;;;23.79;33.46
45403;BME280;47427;51.976;5.326;2022-09-02T18:28:35;101095.56;;;23.52;34.29
45403;BME280;47427;51.976;5.326;2022-09-02T18:32:26;101089.97;;;23.24;34.54
45403;BME280;47427;51.976;5.326;2022-09-02T18:47:43;101109.88;;;22.67;35.64
45403;BME280;47427;51.976;5.326;2022-09-02T18:51:20;101101.31;;;22.48;36.46
45403;BME280;47427;51.976;5.326;2022-09-02T18:55:11;101103.38;;;22.32;37.05
45403;BME280;47427;51.976;5.326;2022-09-02T18:58:56;101110.78;;;22.15;37.04
45403;BME280;47427;51.976;5.326;2022-09-02T19:05:50;101109.44;;;21.91;38.26
45403;BME280;47427;51.976;5.326;2022-09-02T19:09:14;101109.56;;;21.81;37.96
45403;BME280;47427;51.976;5.326;2022-09-02T19:12:37;101107.94;;;21.71;37.85
45403;BME280;47427;51.976;5.326;2022-09-02T19:15:59;101123.19;;;21.64;37.98
45403;BME280;47427;51.976;5.326;2022-09-02T19:19:22;101116.25;;;21.53;37.92
45403;BME280;47427;51.976;5.326;2022-09-02T19:22:50;101119.13;;;21.37;37.73
45403;BME280;47427;51.976;5.326;2022-09-02T19:26:13;101126.25;;;21.34;37.83
45403;BME280;47427;51.976;5.326;2022-09-02T19:29:39;101133.50;;;21.27;38.44
45403;BME280;47427;51.976;5.326;2022-09-02T19:33:07;101126.56;;;21.12;38.55
45403;BME280;47427;51.976;5.326;2022-09-02T19:36:32;101123.13;;;21.03;39.23
45403;BME280;47427;51.976;5.326;2022-09-02T19:39:54;101125.78;;;21.04;38.55
45403;BME280;47427;51.976;5.326;2022-09-02T19:43:16;101125.91;;;20.93;39.11
45403;BME280;47427;51.976;5.326;2022-09-02T19:46:38;101131.31;;;20.86;39.33
45403;BME280;47427;51.976;5.326;2022-09-02T19:50:04;101122.63;;;20.70;39.95
45403;BME280;47427;51.976;5.326;2022-09-02T19:53:26;101116.56;;;20.55;39.96
45403;BME280;47427;51.976;5.326;2022-09-02T19:56:52;101134.28;;;20.58;39.32
45403;BME280;47427;51.976;5.326;2022-09-02T20:00:14;101121.88;;;20.54;40.08
45403;BME280;47427;51.976;5.326;2022-09-02T20:03:37;101121.06;;;20.47;40.18
45403;BME280;47427;51.976;5.326;2022-09-02T20:07:00;101115.84;;;20.37;39.88